createdAt,value
2022-10-05T00:02:20.385Z,101291.78
2022-10-05T00:04:48.248Z,101300.56
2022-10-05T00:07:19.501Z,101290.06
2022-10-05T00:09:54.285Z,101287.44
2022-10-05T00:12:21.881Z,101288.28
2022-10-05T00:14:50.465Z,101297.94
2022-10-05T00:17:21.120Z,101297.06
2022-10-05T00:19:52.109Z,101291.81
2022-10-05T00:22:21.202Z,101292.69
2022-10-05T00:24:50.562Z,101279.56
2022-10-05T00:27:26.125Z,101267.28
2022-10-05T00:29:54.309Z,101269.00
2022-10-05T00:32:20.755Z,101269.91
2022-10-05T00:34:47.390Z,101269.03
2022-10-05T00:37:14.261Z,101264.66
2022-10-05T00:39:41.641Z,101266.41
2022-10-05T00:42:25.167Z,101262.03
2022-10-05T00:44:56.187Z,101257.63
2022-10-05T00:48:02.922Z,101256.72
2022-10-05T00:50:47.948Z,101256.78
2022-10-05T00:53:29.630Z,101240.13
2022-10-05T00:56:36.919Z,101233.06
2022-10-05T00:59:22.321Z,101240.97
2022-10-05T01:02:04.918Z,101241.91
2022-10-05T01:05:04.603Z,101232.22
2022-10-05T01:07:46.177Z,101223.41
2022-10-05T01:10:22.652Z,101225.25
2022-10-05T01:12:57.938Z,101224.38
2022-10-05T01:15:29.127Z,101228.75
2022-10-05T01:18:21.284Z,101227.84
2022-10-05T01:20:57.257Z,101221.69
2022-10-05T01:23:36.000Z,101219.94
2022-10-05T01:26:24.523Z,101220.78
2022-10-05T01:29:06.863Z,101215.56
2022-10-05T01:31:41.775Z,101216.44
2022-10-05T01:34:27.434Z,101210.31
2022-10-05T01:37:01.396Z,101208.50
2022-10-05T01:39:43.102Z,101205.84
2022-10-05T01:42:35.589Z,101203.28
2022-10-05T01:45:10.026Z,101206.72
2022-10-05T01:47:43.414Z,101212.94
2022-10-05T01:50:45.673Z,101197.13
2022-10-05T01:53:30.666Z,101194.50
2022-10-05T01:56:27.919Z,101192.78
2022-10-05T01:59:08.096Z,101190.09
2022-10-05T02:01:34.532Z,101194.50
2022-10-05T02:04:09.424Z,101189.22
2022-10-05T02:06:41.716Z,101188.41
2022-10-05T02:09:20.853Z,101184.00
2022-10-05T02:11:55.253Z,101187.44
2022-10-05T02:14:25.990Z,101187.47
2022-10-05T02:16:54.171Z,101190.94
2022-10-05T02:19:25.371Z,101185.69
2022-10-05T02:22:02.335Z,101179.59
2022-10-05T02:24:33.945Z,101177.88
2022-10-05T02:27:01.455Z,101174.34
2022-10-05T02:29:31.018Z,101180.50
2022-10-05T02:32:00.847Z,101169.88
2022-10-05T02:34:41.538Z,101172.56
2022-10-05T02:37:45.844Z,101168.25
2022-10-05T02:40:25.410Z,101162.09
2022-10-05T02:43:10.274Z,101156.75
2022-10-05T02:46:12.357Z,101159.47
2022-10-05T02:48:41.994Z,101155.06
2022-10-05T02:51:26.149Z,101156.78
2022-10-05T02:54:16.399Z,101155.00
2022-10-05T02:57:15.739Z,101151.53
2022-10-05T02:59:56.792Z,101147.09
2022-10-05T03:03:04.798Z,101152.38
2022-10-05T03:05:43.475Z,101146.38
2022-10-05T03:08:20.968Z,101154.19
2022-10-05T03:11:21.724Z,101145.41
2022-10-05T03:13:55.852Z,101142.78
2022-10-05T03:16:28.378Z,101139.31
2022-10-05T03:19:05.456Z,101131.41
2022-10-05T03:21:43.206Z,101135.00
2022-10-05T03:24:30.084Z,101123.63
2022-10-05T03:27:05.978Z,101128.88
2022-10-05T03:29:50.241Z,101115.72
2022-10-05T03:32:22.930Z,101120.09
2022-10-05T03:35:17.787Z,101122.75
2022-10-05T03:37:49.090Z,101125.34
2022-10-05T03:40:38.787Z,101132.22
2022-10-05T03:43:29.863Z,101123.50
2022-10-05T03:46:14.868Z,101124.44
2022-10-05T03:49:30.071Z,101113.94
2022-10-05T03:52:02.424Z,101115.66
2022-10-05T03:54:29.044Z,101121.81
2022-10-05T03:56:58.136Z,101105.25
2022-10-05T03:59:32.999Z,101108.72
2022-10-05T04:02:06.303Z,101117.50
2022-10-05T04:04:45.452Z,101116.63
2022-10-05T04:07:26.079Z,101125.34
2022-10-05T04:09:53.253Z,101119.25
2022-10-05T04:12:26.418Z,101121.84
2022-10-05T04:15:09.130Z,101120.06
2022-10-05T04:18:05.837Z,101117.50
2022-10-05T04:20:38.306Z,101121.81
2022-10-05T04:23:15.005Z,101127.03
2022-10-05T04:25:45.379Z,101125.41
2022-10-05T04:28:29.668Z,101120.94
2022-10-05T04:31:00.298Z,101126.25
2022-10-05T04:33:27.406Z,101120.06
2022-10-05T04:36:02.987Z,101119.13
2022-10-05T04:38:53.045Z,101110.41
2022-10-05T04:41:25.681Z,101111.31
2022-10-05T04:44:01.286Z,101108.69
2022-10-05T04:46:42.996Z,101095.41
2022-10-05T04:49:27.239Z,101102.63
2022-10-05T04:52:01.659Z,101093.81
2022-10-05T04:54:56.005Z,101090.31
2022-10-05T04:57:44.004Z,101090.34
2022-10-05T05:00:26.993Z,101079.88
2022-10-05T05:03:23.817Z,101083.34
2022-10-05T05:06:16.985Z,101081.56
2022-10-05T05:09:05.039Z,101079.00
2022-10-05T05:12:01.301Z,101072.84
2022-10-05T05:14:56.005Z,101078.97
2022-10-05T05:17:41.144Z,101072.81
2022-10-05T05:20:25.921Z,101061.47
2022-10-05T05:22:59.503Z,101063.25
2022-10-05T05:25:55.248Z,101070.19
2022-10-05T05:28:39.453Z,101061.47
2022-10-05T05:31:33.965Z,101071.09
2022-10-05T05:34:23.308Z,101078.06
2022-10-05T05:37:11.142Z,101078.13
2022-10-05T05:39:42.819Z,101073.81
2022-10-05T05:42:21.590Z,101067.66
2022-10-05T05:44:52.247Z,101061.41
2022-10-05T05:47:37.758Z,101055.38
2022-10-05T05:50:32.424Z,101065.03
2022-10-05T05:53:03.796Z,101061.53
2022-10-05T05:55:36.304Z,101070.31
2022-10-05T05:58:26.091Z,101062.38
2022-10-05T06:01:04.360Z,101061.53
2022-10-05T06:03:47.184Z,101052.72
2022-10-05T06:06:16.866Z,101060.63
2022-10-05T06:08:46.325Z,101056.28
2022-10-05T06:11:23.971Z,101063.16
2022-10-05T06:13:51.189Z,101062.41
2022-10-05T06:16:53.818Z,101054.53
2022-10-05T06:19:22.737Z,101059.75
2022-10-05T06:21:58.525Z,101051.97
2022-10-05T06:24:57.468Z,101051.03
2022-10-05T06:27:34.993Z,101057.16
2022-10-05T06:30:31.900Z,101059.75
2022-10-05T06:33:45.553Z,101059.66
2022-10-05T06:36:50.467Z,101056.25
2022-10-05T06:39:41.487Z,101051.84
2022-10-05T06:42:17.056Z,101057.09
2022-10-05T06:44:53.541Z,101051.81
2022-10-05T06:47:43.544Z,101050.06
2022-10-05T06:50:19.501Z,101050.94
2022-10-05T06:53:12.742Z,101052.69
2022-10-05T06:55:48.746Z,101046.66
2022-10-05T06:58:43.096Z,101058.81
2022-10-05T07:01:43.624Z,101050.06
2022-10-05T07:04:30.457Z,101051.78
2022-10-05T07:07:17.252Z,101059.59
2022-10-05T07:10:07.871Z,101069.38
2022-10-05T07:13:00.664Z,101072.69
2022-10-05T07:15:56.594Z,101066.53
2022-10-05T07:18:23.086Z,101060.31
2022-10-05T07:21:00.345Z,101064.06
2022-10-05T07:23:41.517Z,101072.66
2022-10-05T07:26:20.974Z,101070.06
2022-10-05T07:29:06.951Z,101068.41
2022-10-05T07:31:40.610Z,101061.38
2022-10-05T07:34:10.472Z,101071.00
2022-10-05T07:37:21.362Z,101066.66
2022-10-05T07:40:00.448Z,101053.56
2022-10-05T07:42:48.962Z,101066.63
2022-10-05T07:45:31.113Z,101076.00
2022-10-05T07:48:01.663Z,101070.69
2022-10-05T07:50:37.347Z,101065.38
2022-10-05T07:53:29.028Z,101078.78
2022-10-05T07:56:00.437Z,101065.56
2022-10-05T07:58:57.224Z,101064.38
2022-10-05T08:01:27.026Z,101070.63
2022-10-05T08:04:03.463Z,101065.38
2022-10-05T08:06:53.399Z,101072.28
2022-10-05T08:09:29.038Z,101066.88
2022-10-05T08:12:02.830Z,101072.00
2022-10-05T08:14:52.508Z,101070.19
2022-10-05T08:17:25.637Z,101066.72
2022-10-05T08:20:19.653Z,101066.00
2022-10-05T08:22:49.465Z,101065.94
2022-10-05T08:25:54.014Z,101064.22
2022-10-05T08:28:28.565Z,101063.41
2022-10-05T08:30:59.635Z,101062.75
2022-10-05T08:33:27.890Z,101076.41
2022-10-05T08:36:13.669Z,101064.94
2022-10-05T08:38:40.543Z,101059.69
2022-10-05T08:41:57.590Z,101051.81
2022-10-05T08:44:49.699Z,101056.13
2022-10-05T08:47:28.083Z,101032.22
2022-10-05T08:50:23.290Z,101050.75
2022-10-05T08:53:07.658Z,101051.16
2022-10-05T08:55:40.734Z,101051.66
2022-10-05T08:58:33.019Z,101059.84
2022-10-05T09:01:37.901Z,101052.50
2022-10-05T09:04:25.317Z,101052.38
2022-10-05T09:06:57.834Z,101061.13
2022-10-05T09:09:43.012Z,101055.94
2022-10-05T09:13:04.055Z,101044.75
2022-10-05T09:16:11.753Z,101066.06
2022-10-05T09:18:56.962Z,101052.19
2022-10-05T09:21:43.163Z,101061.97
2022-10-05T09:24:12.517Z,101054.91
2022-10-05T09:27:28.520Z,101046.31
2022-10-05T09:30:20.658Z,101037.03
2022-10-05T09:33:13.737Z,101040.56
2022-10-05T09:36:12.386Z,101029.22
2022-10-05T09:38:50.900Z,101034.94
2022-10-05T09:41:49.951Z,101035.56
2022-10-05T09:44:31.661Z,101031.81
2022-10-05T09:47:16.341Z,101036.41
2022-10-05T09:49:50.289Z,101029.31
2022-10-05T09:52:52.414Z,101025.03
2022-10-05T09:55:39.294Z,101032.72
2022-10-05T09:58:28.499Z,101028.16
2022-10-05T10:01:09.080Z,101020.03
2022-10-05T10:04:10.060Z,101025.53
2022-10-05T10:07:04.582Z,101016.25
2022-10-05T10:10:10.363Z,101018.41
2022-10-05T10:13:00.134Z,101022.94
2022-10-05T10:15:45.471Z,101033.56
2022-10-05T10:18:43.068Z,101027.09
2022-10-05T10:21:24.750Z,101023.28
2022-10-05T10:24:08.457Z,101023.81
2022-10-05T10:26:42.462Z,101024.00
2022-10-05T10:29:37.668Z,101032.13
2022-10-05T10:32:41.901Z,101013.69
2022-10-05T10:35:22.884Z,101013.41
2022-10-05T10:37:52.476Z,101007.34
2022-10-05T10:40:34.970Z,101005.94
2022-10-05T10:43:22.169Z,101004.16
2022-10-05T10:45:58.178Z,100997.50
2022-10-05T10:48:30.980Z,101002.34
2022-10-05T10:51:06.451Z,101003.53
2022-10-05T10:53:50.845Z,101007.41
2022-10-05T10:56:28.308Z,101007.59
2022-10-05T10:59:19.764Z,101009.72
2022-10-05T11:01:46.511Z,101012.22
2022-10-05T11:04:28.188Z,101012.03
2022-10-05T11:07:21.576Z,101018.47
2022-10-05T11:10:16.316Z,101020.78
2022-10-05T11:12:58.582Z,101014.59
2022-10-05T11:16:01.526Z,101020.03
2022-10-05T11:18:40.194Z,101011.94
2022-10-05T11:21:34.257Z,101014.66
2022-10-05T11:24:19.611Z,101014.00
2022-10-05T11:27:12.570Z,101012.94
2022-10-05T11:30:13.405Z,101005.56
2022-10-05T11:32:58.595Z,101004.91
2022-10-05T11:36:01.262Z,100992.09
2022-10-05T11:38:48.304Z,100996.34
2022-10-05T11:41:44.712Z,101000.91
2022-10-05T11:44:17.312Z,100989.22
2022-10-05T11:46:53.464Z,100998.78
2022-10-05T11:50:05.494Z,100990.94
2022-10-05T11:52:56.992Z,100974.31
2022-10-05T11:55:57.793Z,100973.34
2022-10-05T11:58:50.450Z,100975.38
2022-10-05T12:01:29.185Z,100971.63
2022-10-05T12:04:17.350Z,100965.97
2022-10-05T12:07:14.977Z,100976.75
2022-10-05T12:10:17.487Z,100965.94
2022-10-05T12:12:45.112Z,100972.25
2022-10-05T12:15:20.149Z,100972.91
2022-10-05T12:18:15.742Z,100957.50
2022-10-05T12:21:15.745Z,100953.78
2022-10-05T12:24:01.016Z,100955.75
2022-10-05T12:26:41.565Z,100960.38
2022-10-05T12:29:21.572Z,100962.09
2022-10-05T12:32:06.387Z,100960.22
2022-10-05T12:34:39.018Z,100951.56
2022-10-05T12:37:46.705Z,100952.38
2022-10-05T12:40:27.381Z,100952.28
2022-10-05T12:43:00.544Z,100955.38
2022-10-05T12:45:39.169Z,100945.53
2022-10-05T12:48:21.828Z,100946.31
2022-10-05T12:50:57.386Z,100941.25
2022-10-05T12:54:04.679Z,100939.16
2022-10-05T12:56:44.810Z,100940.75
2022-10-05T12:59:34.641Z,100938.91
2022-10-05T13:02:30.169Z,100938.00
2022-10-05T13:05:23.364Z,100942.00
2022-10-05T13:08:10.537Z,100938.50
2022-10-05T13:11:03.601Z,100939.34
2022-10-05T13:13:48.261Z,100933.94
2022-10-05T13:16:17.889Z,100938.06
2022-10-05T13:19:15.036Z,100929.97
2022-10-05T13:21:53.661Z,100934.91
2022-10-05T13:24:24.726Z,100926.50
2022-10-05T13:27:00.566Z,100934.28
2022-10-05T13:29:59.557Z,100926.50
2022-10-05T13:32:27.506Z,100921.81
2022-10-05T13:35:00.027Z,100930.03
2022-10-05T13:37:32.266Z,100918.75
2022-10-05T13:40:14.928Z,100932.00
2022-10-05T13:42:57.962Z,100928.34
2022-10-05T13:45:26.556Z,100923.63
2022-10-05T13:47:56.064Z,100918.22
2022-10-05T13:50:29.719Z,100923.53
2022-10-05T13:53:18.403Z,100921.00
2022-10-05T13:55:56.168Z,100922.97
2022-10-05T13:58:54.217Z,100922.50
2022-10-05T14:01:35.404Z,100921.34
2022-10-05T14:04:20.787Z,100916.69
2022-10-05T14:06:48.499Z,100918.25
2022-10-05T14:09:31.477Z,100917.09
2022-10-05T14:12:03.942Z,100916.28
2022-10-05T14:14:43.535Z,100924.13
2022-10-05T14:17:16.427Z,100904.00
2022-10-05T14:19:47.276Z,100909.38
2022-10-05T14:22:22.440Z,100903.00
2022-10-05T14:25:03.954Z,100897.81
2022-10-05T14:27:55.640Z,100897.53
2022-10-05T14:30:27.060Z,100901.91
2022-10-05T14:33:05.745Z,100897.38
2022-10-05T14:35:48.978Z,100891.63
2022-10-05T14:38:48.771Z,100892.00
2022-10-05T14:41:25.431Z,100890.25
2022-10-05T14:44:15.416Z,100886.56
2022-10-05T14:46:54.695Z,100886.56
2022-10-05T14:49:25.738Z,100888.00
2022-10-05T14:51:53.495Z,100884.06
2022-10-05T14:54:37.030Z,100885.75
2022-10-05T14:57:30.754Z,100887.81
2022-10-05T15:00:04.494Z,100885.75
2022-10-05T15:03:04.397Z,100876.00
2022-10-05T15:06:14.214Z,100868.28
2022-10-05T15:08:51.789Z,100864.22
2022-10-05T15:11:25.750Z,100857.44
2022-10-05T15:13:52.782Z,100860.72
2022-10-05T15:16:20.895Z,100856.88
2022-10-05T15:19:28.298Z,100863.00
2022-10-05T15:22:05.697Z,100845.81
2022-10-05T15:24:43.731Z,100849.00
2022-10-05T15:27:21.848Z,100846.72
2022-10-05T15:29:57.731Z,100837.59
2022-10-05T15:32:33.171Z,100839.00
2022-10-05T15:35:18.562Z,100824.00
2022-10-05T15:37:49.877Z,100830.00
2022-10-05T15:41:01.393Z,100829.22
2022-10-05T15:43:39.046Z,100827.44
2022-10-05T15:46:11.037Z,100822.28
2022-10-05T15:48:59.267Z,100834.66
2022-10-05T15:51:35.613Z,100825.84
2022-10-05T15:54:36.067Z,100830.66
2022-10-05T15:57:28.586Z,100840.94
2022-10-05T16:00:17.413Z,100835.66
2022-10-05T16:02:59.230Z,100834.84
2022-10-05T16:05:56.909Z,100838.00
2022-10-05T16:08:50.533Z,100828.81
2022-10-05T16:11:41.413Z,100827.50
2022-10-05T16:14:27.950Z,100827.44
2022-10-05T16:17:00.618Z,100828.00
2022-10-05T16:19:42.378Z,100827.25
2022-10-05T16:22:22.312Z,100846.81
2022-10-05T16:25:07.419Z,100837.84
2022-10-05T16:28:02.974Z,100840.41
2022-10-05T16:30:43.537Z,100847.22
2022-10-05T16:33:18.823Z,100848.34
2022-10-05T16:36:19.511Z,100853.84
2022-10-05T16:38:48.459Z,100857.13
2022-10-05T16:41:29.609Z,100854.38
2022-10-05T16:44:09.948Z,100856.28
2022-10-05T16:46:53.776Z,100856.19
2022-10-05T16:49:47.164Z,100864.00
2022-10-05T16:52:18.911Z,100862.16
2022-10-05T16:54:49.691Z,100861.66
2022-10-05T16:57:22.057Z,100874.38
2022-10-05T17:00:17.749Z,100873.13
2022-10-05T17:02:50.344Z,100866.56
2022-10-05T17:05:30.510Z,100878.69
2022-10-05T17:08:36.672Z,100878.84
2022-10-05T17:11:05.919Z,100868.00
2022-10-05T17:13:53.588Z,100872.44
2022-10-05T17:16:23.614Z,100867.91
2022-10-05T17:19:15.368Z,100868.25
2022-10-05T17:21:49.734Z,100865.19
2022-10-05T17:24:24.180Z,100868.47
2022-10-05T17:27:21.689Z,100873.88
2022-10-05T17:29:51.878Z,100864.53
2022-10-05T17:32:18.328Z,100875.38
2022-10-05T17:35:03.102Z,100871.75
2022-10-05T17:37:36.309Z,100865.13
2022-10-05T17:40:35.360Z,100870.16
2022-10-05T17:43:17.158Z,100863.03
2022-10-05T17:45:43.578Z,100873.72
2022-10-05T17:48:11.672Z,100873.22
2022-10-05T17:51:02.417Z,100865.78
2022-10-05T17:53:57.511Z,100862.72
2022-10-05T17:56:26.449Z,100856.56
2022-10-05T18:02:14.227Z,100864.41
2022-10-05T18:04:42.261Z,100852.47
2022-10-05T18:07:18.401Z,100851.63
2022-10-05T18:09:55.299Z,100848.69
2022-10-05T18:12:21.900Z,100848.09
2022-10-05T18:15:06.805Z,100844.78
2022-10-05T18:17:51.174Z,100842.34
2022-10-05T18:20:23.837Z,100835.81
2022-10-05T18:22:53.328Z,100835.06
2022-10-05T18:25:27.155Z,100833.72
2022-10-05T18:28:12.498Z,100831.81
2022-10-05T18:31:05.430Z,100832.28
2022-10-05T18:33:54.623Z,100831.63
2022-10-05T18:36:36.904Z,100840.00
2022-10-05T18:39:35.503Z,100837.31
2022-10-05T18:42:25.293Z,100835.47
2022-10-05T18:44:56.011Z,100838.72
2022-10-05T18:47:30.316Z,100837.75
2022-10-05T18:49:59.801Z,100838.47
2022-10-05T18:53:05.598Z,100839.19
2022-10-05T18:55:39.238Z,100837.59
2022-10-05T18:58:26.236Z,100825.25
2022-10-05T19:01:19.705Z,100831.19
2022-10-05T19:04:12.589Z,100829.09
2022-10-05T19:07:05.721Z,100828.31
2022-10-05T19:09:34.954Z,100832.69
2022-10-05T19:12:09.999Z,100822.22
2022-10-05T19:14:42.339Z,100819.84
2022-10-05T19:17:29.598Z,100814.97
2022-10-05T19:20:10.013Z,100808.97
2022-10-05T19:23:00.090Z,100804.41
2022-10-05T19:25:51.958Z,100816.41
2022-10-05T19:28:25.081Z,100823.44
2022-10-05T19:31:13.170Z,100818.22
2022-10-05T19:34:04.449Z,100818.16
2022-10-05T19:36:52.781Z,100819.63
2022-10-05T19:39:51.553Z,100821.78
2022-10-05T19:42:27.274Z,100821.63
2022-10-05T19:45:11.748Z,100827.41
2022-10-05T19:47:41.155Z,100824.81
2022-10-05T19:50:23.265Z,100824.56
2022-10-05T19:52:52.017Z,100823.44
2022-10-05T19:55:22.320Z,100824.53
2022-10-05T19:57:50.820Z,100823.88
2022-10-05T20:00:33.018Z,100822.94
2022-10-05T20:03:18.993Z,100831.13
2022-10-05T20:05:45.958Z,100829.44
2022-10-05T20:08:31.851Z,100830.50
2022-10-05T20:11:05.958Z,100833.28
2022-10-05T20:13:35.057Z,100825.78
2022-10-05T20:16:35.678Z,100833.78
2022-10-05T20:19:44.993Z,100832.31
2022-10-05T20:22:24.896Z,100848.94
2022-10-05T20:24:53.935Z,100839.88
2022-10-05T20:27:42.427Z,100846.91
2022-10-05T20:30:11.306Z,100842.81
2022-10-05T20:32:38.515Z,100842.44
2022-10-05T20:35:07.370Z,100846.00
2022-10-05T20:37:34.332Z,100850.16
2022-10-05T20:40:00.768Z,100840.09
2022-10-05T20:42:27.233Z,100853.91
2022-10-05T20:44:56.828Z,100857.53
2022-10-05T20:47:25.561Z,100859.69
2022-10-05T20:49:55.496Z,100856.78
2022-10-05T20:52:23.620Z,100851.94
2022-10-05T20:54:53.837Z,100852.75
2022-10-05T20:57:21.824Z,100855.47
2022-10-05T20:59:48.784Z,100853.56
2022-10-05T21:02:15.898Z,100852.16
2022-10-05T21:04:47.462Z,100846.91
2022-10-05T21:07:16.767Z,100853.19
2022-10-05T21:09:46.640Z,100849.91
2022-10-05T21:12:14.005Z,100849.31
2022-10-05T21:14:40.647Z,100845.41
2022-10-05T21:17:07.232Z,100841.88
2022-10-05T21:19:38.387Z,100850.28
2022-10-05T21:22:12.306Z,100848.03
2022-10-05T21:24:40.773Z,100845.63
2022-10-05T21:27:08.089Z,100861.66
2022-10-05T21:29:35.779Z,100872.75
2022-10-05T21:32:02.672Z,100859.50
2022-10-05T21:34:29.459Z,100878.53
2022-10-05T21:36:56.561Z,100881.94
2022-10-05T21:39:23.681Z,100889.47
2022-10-05T21:41:50.375Z,100892.59
2022-10-05T21:44:16.916Z,100889.38
2022-10-05T21:46:43.480Z,100886.91
2022-10-05T21:49:10.027Z,100886.56
2022-10-05T21:51:37.308Z,100892.41
2022-10-05T21:54:09.895Z,100891.13
2022-10-05T21:56:38.689Z,100904.19
2022-10-05T21:59:08.278Z,100895.84
2022-10-05T22:01:36.058Z,100908.06
2022-10-05T22:04:06.231Z,100892.97
2022-10-05T22:06:33.477Z,100894.84
2022-10-05T22:09:00.098Z,100895.59
2022-10-05T22:11:27.171Z,100897.19
2022-10-05T22:13:54.042Z,100900.25
2022-10-05T22:16:22.120Z,100899.91
2022-10-05T22:18:49.333Z,100900.06
2022-10-05T22:21:16.077Z,100895.59
2022-10-05T22:23:45.080Z,100904.25
2022-10-05T22:26:13.612Z,100917.13
2022-10-05T22:28:40.429Z,100904.53
2022-10-05T22:31:08.121Z,100911.47
2022-10-05T22:33:34.646Z,100919.34
2022-10-05T22:36:01.413Z,100923.78
2022-10-05T22:38:30.525Z,100961.97
2022-10-05T22:40:57.801Z,100944.44
2022-10-05T22:43:27.015Z,100950.56
2022-10-05T22:45:54.172Z,100958.47
2022-10-05T22:48:21.469Z,100960.38
2022-10-05T22:50:48.040Z,100960.75
2022-10-05T22:53:14.492Z,100961.09
2022-10-05T22:55:40.990Z,100964.03
2022-10-05T22:58:07.560Z,100956.03
2022-10-05T23:00:56.457Z,100970.06
2022-10-05T23:03:20.477Z,100968.16
2022-10-05T23:05:46.923Z,100971.66
2022-10-05T23:08:13.349Z,100969.84
2022-10-05T23:10:39.808Z,100989.41
2022-10-05T23:13:06.293Z,100982.97
2022-10-05T23:15:33.817Z,100995.50
2022-10-05T23:18:00.315Z,101002.75
2022-10-05T23:20:26.983Z,101017.72
2022-10-05T23:22:53.793Z,101023.72
2022-10-05T23:25:22.216Z,101023.41
2022-10-05T23:27:48.795Z,101017.88
2022-10-05T23:30:15.569Z,101019.47
2022-10-05T23:32:43.572Z,101041.75
2022-10-05T23:35:13.604Z,101038.84
2022-10-05T23:37:44.821Z,101035.34
2022-10-05T23:40:13.101Z,101050.16
2022-10-05T23:42:42.961Z,101054.78
2022-10-05T23:45:10.713Z,101068.88
2022-10-05T23:47:37.642Z,101076.56
2022-10-05T23:50:07.040Z,101079.97
2022-10-05T23:52:34.425Z,101081.91
2022-10-05T23:55:01.796Z,101081.34
2022-10-05T23:57:28.302Z,101094.91
2022-10-05T23:59:56.264Z,101104.78
